Time;durP1;ratioP1;P1;durP2;ratioP2;P2;SDS_P1;SDS_P2;PMS_P1;PMS_P2;Temp;Humidity;BMP_temperature;BMP_pressure;BME280_temperature;BME280_humidity;BME280_pressure;Samples;Min_cycle;Max_cycle;Signal;HPM_P1;HPM_P2
2023/07/09 00:02:24;;;;;;;10.90;5.82;;;21.40;99.90;;;;;;5046533;28;20030;-67
2023/07/09 00:04:49;;;;;;;9.73;6.78;;;21.30;99.90;;;;;;5046115;28;20037;-68
2023/07/09 00:07:28;;;;;;;15.48;6.35;;;21.40;99.90;;;;;;5046114;28;20025;-67
2023/07/09 00:09:55;;;;;;;12.50;6.20;;;21.30;99.90;;;;;;5046135;28;20825;-68
2023/07/09 00:12:20;;;;;;;11.13;6.55;;;21.20;99.90;;;;;;5045685;28;20466;-68
2023/07/09 00:14:46;;;;;;;7.45;6.32;;;21.20;99.90;;;;;;5046036;28;20051;-68
2023/07/09 00:17:21;;;;;;;9.73;6.13;;;21.20;99.90;;;;;;5046153;28;20032;-67
2023/07/09 00:19:46;;;;;;;11.80;6.50;;;21.20;99.90;;;;;;5045511;28;20049;-67
2023/07/09 00:22:18;;;;;;;9.10;6.57;;;21.20;99.90;;;;;;5045860;28;20087;-68
2023/07/09 00:24:50;;;;;;;9.80;6.97;;;21.10;99.90;;;;;;5046070;28;20037;-68
2023/07/09 00:27:18;;;;;;;8.20;6.57;;;21.10;99.90;;;;;;5045608;28;20022;-69
2023/07/09 00:29:43;;;;;;;8.98;6.30;;;21.10;99.90;;;;;;5045599;28;20063;-66
2023/07/09 00:32:20;;;;;;;10.38;6.63;;;21.10;99.90;;;;;;5045613;28;20045;-67
2023/07/09 00:34:48;;;;;;;11.25;6.55;;;21.10;99.90;;;;;;5045446;28;20029;-68
2023/07/09 00:37:15;;;;;;;12.80;6.95;;;21.10;99.90;;;;;;5045577;28;20021;-68
2023/07/09 00:39:41;;;;;;;11.50;7.03;;;21.10;99.90;;;;;;5045208;28;20018;-69
2023/07/09 00:42:17;;;;;;;10.93;6.93;;;21.00;99.90;;;;;;5045564;28;20082;-67
2023/07/09 00:44:43;;;;;;;9.90;6.57;;;21.00;99.90;;;;;;5044661;28;20032;-69
2023/07/09 00:47:18;;;;;;;12.70;6.95;;;21.00;99.90;;;;;;5045158;28;20033;-67
2023/07/09 00:49:47;;;;;;;9.10;6.90;;;21.00;99.90;;;;;;5045140;28;20491;-67
2023/07/09 00:52:28;;;;;;;12.40;7.07;;;21.00;99.90;;;;;;5044193;28;20060;-68
2023/07/09 00:54:54;;;;;;;12.85;7.40;;;20.90;99.90;;;;;;5044849;28;20116;-67
2023/07/09 00:57:25;;;;;;;9.63;6.28;;;20.90;99.90;;;;;;5045174;28;20037;-67
2023/07/09 00:59:57;;;;;;;10.93;6.93;;;20.80;99.90;;;;;;5045038;28;20116;-67
2023/07/09 01:02:23;;;;;;;11.98;6.75;;;20.80;99.90;;;;;;5044769;28;20020;-68
2023/07/09 01:05:00;;;;;;;13.27;7.20;;;20.80;99.90;;;;;;5045185;28;20036;-67
2023/07/09 01:07:26;;;;;;;12.23;7.72;;;20.70;99.90;;;;;;5044894;28;20021;-67
2023/07/09 01:09:52;;;;;;;10.77;7.30;;;20.70;99.90;;;;;;5044655;28;20038;-67
2023/07/09 01:12:19;;;;;;;9.95;7.25;;;20.70;99.90;;;;;;5044978;28;20052;-67
2023/07/09 01:14:51;;;;;;;10.25;7.30;;;20.60;99.90;;;;;;5044890;28;20045;-67
2023/07/09 01:17:17;;;;;;;12.48;7.45;;;20.50;99.90;;;;;;5044768;28;20021;-67
2023/07/09 01:19:48;;;;;;;11.88;7.72;;;20.50;99.90;;;;;;5044403;28;20029;-67
2023/07/09 01:22:18;;;;;;;11.15;7.78;;;20.50;99.90;;;;;;5044704;28;20026;-66
2023/07/09 01:25:01;;;;;;;9.23;7.55;;;20.50;99.90;;;;;;5044447;28;20048;-68
2023/07/09 01:27:38;;;;;;;12.32;8.40;;;20.40;99.90;;;;;;5044994;28;20083;-68
2023/07/09 01:30:08;;;;;;;9.27;7.32;;;20.40;99.90;;;;;;5044397;28;20045;-69
2023/07/09 01:32:34;;;;;;;11.20;7.85;;;20.40;99.90;;;;;;5044735;28;20033;-69
2023/07/09 01:35:06;;;;;;;14.77;7.95;;;20.40;99.90;;;;;;5044815;28;20039;-67
2023/07/09 01:37:36;;;;;;;10.27;8.25;;;20.30;99.90;;;;;;5044343;28;20045;-67
2023/07/09 01:40:04;;;;;;;13.98;8.63;;;20.20;99.90;;;;;;5044854;28;20028;-68
2023/07/09 01:42:31;;;;;;;10.13;7.97;;;20.20;99.90;;;;;;5044652;28;20466;-67
2023/07/09 01:44:56;;;;;;;9.52;7.63;;;20.10;99.90;;;;;;5044227;28;20035;-66
2023/07/09 01:47:23;;;;;;;10.18;7.97;;;20.10;99.90;;;;;;5044391;28;20524;-67
2023/07/09 01:49:49;;;;;;;10.85;7.80;;;20.10;99.90;;;;;;5044163;28;20041;-68
2023/07/09 01:52:18;;;;;;;11.73;7.85;;;20.00;99.90;;;;;;5044127;28;20076;-67
2023/07/09 01:54:49;;;;;;;12.30;8.40;;;20.00;99.90;;;;;;5044524;28;20052;-67
2023/07/09 01:57:33;;;;;;;13.52;8.48;;;19.90;99.90;;;;;;5044309;28;20067;-67
2023/07/09 02:00:00;;;;;;;13.30;8.05;;;19.90;99.90;;;;;;5044489;28;20036;-67
2023/07/09 02:02:26;;;;;;;11.15;9.00;;;19.90;99.90;;;;;;5044522;28;20477;-68
2023/07/09 02:04:54;;;;;;;13.68;8.23;;;19.80;99.90;;;;;;5044364;28;20033;-67
2023/07/09 02:07:22;;;;;;;16.77;9.23;;;19.80;99.90;;;;;;5044213;28;20097;-67
2023/07/09 02:09:47;;;;;;;11.93;8.60;;;19.80;99.90;;;;;;5044511;28;20064;-68
2023/07/09 02:12:14;;;;;;;12.48;8.32;;;19.80;99.90;;;;;;5044049;28;20033;-67
2023/07/09 02:14:41;;;;;;;9.48;7.90;;;19.80;99.90;;;;;;5044411;28;20101;-67
2023/07/09 02:17:07;;;;;;;13.65;8.05;;;19.90;99.90;;;;;;5044290;28;20028;-69
2023/07/09 02:19:33;;;;;;;14.32;8.70;;;19.90;99.90;;;;;;5044422;28;20032;-67
2023/07/09 02:21:59;;;;;;;10.10;8.38;;;19.80;99.90;;;;;;5044308;28;20072;-67
2023/07/09 02:24:26;;;;;;;15.45;8.85;;;19.80;99.90;;;;;;5044346;28;20029;-67
2023/07/09 02:26:53;;;;;;;11.93;9.00;;;19.80;99.90;;;;;;5043944;28;20021;-68
2023/07/09 02:29:18;;;;;;;13.43;8.88;;;19.80;99.90;;;;;;5043962;28;20025;-67
2023/07/09 02:31:45;;;;;;;13.18;9.00;;;19.80;99.90;;;;;;5044604;28;20041;-68
2023/07/09 02:34:11;;;;;;;11.48;9.65;;;19.80;99.90;;;;;;5047893;28;20026;-68
2023/07/09 02:36:36;;;;;;;12.10;8.45;;;19.70;99.90;;;;;;5048158;28;20041;-67
2023/07/09 02:39:03;;;;;;;12.07;9.00;;;19.70;99.90;;;;;;5048113;28;20026;-67
2023/07/09 02:41:28;;;;;;;11.20;8.85;;;19.60;99.90;;;;;;5047878;28;20472;-66
2023/07/09 02:43:54;;;;;;;15.18;9.27;;;19.60;99.90;;;;;;5047878;28;20025;-67
2023/07/09 02:46:19;;;;;;;11.35;8.90;;;19.50;99.90;;;;;;5047659;28;20051;-67
2023/07/09 02:48:45;;;;;;;10.48;8.15;;;19.40;99.90;;;;;;5047480;28;20033;-67
2023/07/09 02:51:10;;;;;;;11.98;8.90;;;19.40;99.90;;;;;;5048113;28;20037;-67
2023/07/09 02:53:36;;;;;;;11.43;8.75;;;19.40;99.90;;;;;;5047597;28;20021;-68
2023/07/09 02:56:01;;;;;;;13.18;8.57;;;19.30;99.90;;;;;;5047985;28;20044;-68
2023/07/09 02:58:27;;;;;;;15.02;9.43;;;19.30;99.90;;;;;;5047595;28;20034;-67
2023/07/09 03:00:52;;;;;;;11.90;9.10;;;19.20;99.90;;;;;;5047350;28;20037;-67
2023/07/09 03:03:21;;;;;;;14.63;9.23;;;19.20;99.90;;;;;;5047823;28;20026;-67
2023/07/09 03:05:47;;;;;;;12.88;9.95;;;19.10;99.90;;;;;;5047691;28;20387;-68
2023/07/09 03:08:14;;;;;;;12.80;8.85;;;19.10;99.90;;;;;;5047139;28;20025;-69
2023/07/09 03:10:40;;;;;;;16.17;9.25;;;19.10;99.90;;;;;;5047351;28;20437;-69
2023/07/09 03:13:06;;;;;;;13.43;9.65;;;19.10;99.90;;;;;;5047604;28;20089;-68
2023/07/09 03:15:32;;;;;;;17.88;9.82;;;19.10;99.90;;;;;;5047132;28;20033;-69
2023/07/09 03:17:58;;;;;;;12.05;9.60;;;19.10;99.90;;;;;;5047586;28;20025;-68
2023/07/09 03:20:23;;;;;;;15.00;10.43;;;19.10;99.90;;;;;;5047139;28;20032;-69
2023/07/09 03:22:49;;;;;;;12.80;9.38;;;19.00;99.90;;;;;;5047097;28;20037;-68
2023/07/09 03:25:15;;;;;;;11.52;9.30;;;19.00;99.90;;;;;;5047349;28;20034;-68
2023/07/09 03:27:40;;;;;;;13.30;9.65;;;19.00;99.90;;;;;;5047105;28;20033;-67
2023/07/09 03:30:06;;;;;;;11.85;9.23;;;19.00;99.90;;;;;;5046892;28;20049;-68
2023/07/09 03:32:32;;;;;;;14.82;9.63;;;18.90;99.90;;;;;;5047380;28;20029;-68
2023/07/09 03:34:58;;;;;;;12.82;9.32;;;18.90;99.90;;;;;;5047038;28;20022;-68
2023/07/09 03:37:23;;;;;;;16.88;9.73;;;18.90;99.90;;;;;;5046516;28;20068;-67
2023/07/09 03:39:49;;;;;;;14.77;9.60;;;18.90;99.90;;;;;;5046842;28;20533;-68
2023/07/09 03:42:14;;;;;;;13.23;9.32;;;18.90;99.90;;;;;;5046525;28;20102;-68
2023/07/09 03:44:40;;;;;;;14.88;10.05;;;19.00;99.90;;;;;;5046417;28;20091;-69
2023/07/09 03:47:06;;;;;;;14.75;9.90;;;18.90;99.90;;;;;;5047141;28;20026;-67
2023/07/09 03:49:32;;;;;;;13.70;9.45;;;18.90;99.90;;;;;;5046364;28;20049;-68
2023/07/09 03:51:58;;;;;;;18.67;10.05;;;18.90;99.90;;;;;;5046753;28;20106;-68
2023/07/09 03:54:24;;;;;;;17.55;10.25;;;18.90;99.90;;;;;;5046602;28;20033;-68
2023/07/09 03:56:49;;;;;;;13.65;9.80;;;18.90;99.90;;;;;;5045071;28;20072;-68
2023/07/09 03:59:15;;;;;;;13.38;9.57;;;18.90;99.90;;;;;;5046464;28;20035;-68
2023/07/09 04:01:46;;;;;;;17.20;10.35;;;18.90;99.90;;;;;;5046685;28;20052;-70
2023/07/09 04:04:14;;;;;;;14.88;9.05;;;18.90;99.90;;;;;;5046515;28;20085;-67
2023/07/09 04:06:40;;;;;;;14.65;9.57;;;18.90;99.90;;;;;;5046286;28;20025;-67
2023/07/09 04:09:05;;;;;;;12.05;9.80;;;18.90;99.90;;;;;;5046445;28;20034;-67
2023/07/09 04:11:31;;;;;;;14.20;8.95;;;19.00;99.90;;;;;;5046330;28;20031;-68
2023/07/09 04:13:56;;;;;;;10.57;9.10;;;19.00;99.90;;;;;;5046451;28;20085;-67
2023/07/09 04:16:22;;;;;;;11.10;9.50;;;19.00;99.90;;;;;;5046209;28;20032;-67
2023/07/09 04:18:48;;;;;;;12.23;9.45;;;19.00;99.90;;;;;;5045725;28;20051;-67
2023/07/09 04:21:13;;;;;;;10.65;9.25;;;19.10;99.90;;;;;;5045977;28;20032;-68
2023/07/09 04:23:39;;;;;;;15.18;9.60;;;19.10;99.90;;;;;;5045956;28;20030;-69
2023/07/09 04:26:09;;;;;;;13.57;9.80;;;19.10;99.90;;;;;;5045901;28;20075;-69
2023/07/09 04:28:34;;;;;;;12.85;9.27;;;19.20;99.90;;;;;;5046461;28;20047;-67
2023/07/09 04:31:00;;;;;;;12.73;9.73;;;19.20;99.90;;;;;;5045777;28;20081;-68
2023/07/09 04:33:26;;;;;;;14.13;9.82;;;19.20;99.90;;;;;;5045730;28;20025;-69
2023/07/09 04:35:51;;;;;;;12.60;9.20;;;19.20;99.90;;;;;;5046046;28;20029;-68
2023/07/09 04:38:17;;;;;;;14.77;9.82;;;19.30;99.90;;;;;;5045129;28;20034;-68
2023/07/09 04:40:43;;;;;;;17.40;9.23;;;19.30;99.90;;;;;;5045481;28;20032;-69
2023/07/09 04:43:08;;;;;;;11.85;8.77;;;19.30;99.90;;;;;;5045768;28;20033;-68
2023/07/09 04:45:34;;;;;;;13.30;9.85;;;19.30;99.90;;;;;;5045610;28;20021;-68
2023/07/09 04:48:00;;;;;;;12.95;9.18;;;19.30;99.90;;;;;;5045742;28;20029;-68
2023/07/09 04:50:25;;;;;;;14.88;9.50;;;19.30;99.90;;;;;;5044934;28;20876;-67
2023/07/09 04:52:52;;;;;;;12.00;8.98;;;19.30;99.90;;;;;;5044982;28;20036;-68
2023/07/09 04:55:18;;;;;;;12.50;8.95;;;19.30;99.90;;;;;;5044711;28;20577;-68
2023/07/09 04:57:44;;;;;;;13.32;9.95;;;19.40;99.90;;;;;;5045071;28;20029;-66
2023/07/09 05:00:11;;;;;;;13.50;9.27;;;19.40;99.90;;;;;;5045172;28;20033;-68
2023/07/09 05:02:36;;;;;;;13.48;9.43;;;19.40;99.90;;;;;;5045590;28;20037;-70
2023/07/09 05:05:02;;;;;;;12.57;9.30;;;19.40;99.90;;;;;;5045424;28;20065;-68
2023/07/09 05:07:28;;;;;;;11.77;9.60;;;19.40;99.90;;;;;;5043333;28;20026;-66
2023/07/09 05:09:53;;;;;;;10.27;8.80;;;19.40;99.90;;;;;;5043927;28;20090;-66
2023/07/09 05:12:20;;;;;;;15.98;9.52;;;19.40;99.90;;;;;;5045042;28;20026;-68
2023/07/09 05:14:46;;;;;;;13.48;9.43;;;19.50;99.90;;;;;;5044683;28;20053;-67
2023/07/09 05:17:12;;;;;;;11.15;8.75;;;19.50;99.90;;;;;;5044905;28;20056;-69
2023/07/09 05:19:38;;;;;;;16.05;9.55;;;19.50;99.90;;;;;;5044706;28;20026;-66
2023/07/09 05:22:04;;;;;;;13.35;9.25;;;19.50;99.90;;;;;;5045087;28;20485;-67
2023/07/09 05:24:29;;;;;;;11.60;9.57;;;19.60;99.90;;;;;;5045277;28;20026;-67
2023/07/09 05:26:55;;;;;;;11.38;9.38;;;19.50;99.90;;;;;;5044392;28;20022;-66
2023/07/09 05:29:21;;;;;;;11.10;8.70;;;19.60;99.90;;;;;;5044577;28;20030;-67
2023/07/09 05:31:46;;;;;;;12.52;9.88;;;19.60;99.90;;;;;;5044755;28;20029;-66
2023/07/09 05:34:12;;;;;;;13.02;9.25;;;19.70;99.90;;;;;;5044633;28;20029;-69
2023/07/09 05:36:38;;;;;;;13.55;10.38;;;19.70;99.90;;;;;;5044540;28;20021;-67
2023/07/09 05:39:04;;;;;;;12.38;9.00;;;19.70;99.90;;;;;;5044816;28;20029;-67
2023/07/09 05:41:29;;;;;;;11.63;9.05;;;19.70;99.90;;;;;;5044206;28;20806;-66
2023/07/09 05:43:55;;;;;;;14.98;9.30;;;19.80;99.90;;;;;;5044351;28;20029;-66
2023/07/09 05:46:22;;;;;;;10.38;9.05;;;19.80;99.90;;;;;;5042969;28;20374;-67
2023/07/09 05:48:48;;;;;;;14.05;9.52;;;19.90;99.90;;;;;;5041650;28;20029;-66
2023/07/09 05:51:14;;;;;;;11.85;8.95;;;19.90;99.90;;;;;;5044216;28;20053;-67
2023/07/09 05:53:43;;;;;;;11.38;9.70;;;19.90;99.90;;;;;;5044581;28;20075;-66
2023/07/09 05:56:08;;;;;;;14.55;9.40;;;20.00;99.90;;;;;;5044448;28;20033;-67
2023/07/09 05:58:34;;;;;;;11.02;9.45;;;20.10;99.90;;;;;;5044536;28;20068;-69
2023/07/09 06:00:59;;;;;;;13.55;9.18;;;20.10;99.90;;;;;;5043293;28;20033;-67
2023/07/09 06:03:26;;;;;;;12.40;9.93;;;20.20;99.90;;;;;;5042227;28;20029;-67
2023/07/09 06:05:53;;;;;;;10.85;9.27;;;20.30;99.90;;;;;;5044825;28;20037;-67
2023/07/09 06:08:20;;;;;;;11.88;9.45;;;20.30;99.90;;;;;;5048385;28;20025;-66
2023/07/09 06:10:58;;;;;;;14.10;9.90;;;20.40;99.90;;;;;;5047986;28;20053;-67
2023/07/09 06:13:25;;;;;;;13.35;9.77;;;20.40;99.90;;;;;;5048408;28;20405;-67
2023/07/09 06:15:54;;;;;;;12.98;9.98;;;20.50;99.90;;;;;;5048214;28;20038;-67
2023/07/09 06:18:21;;;;;;;15.25;10.00;;;20.60;99.90;;;;;;5047865;28;20060;-66
2023/07/09 06:20:52;;;;;;;11.63;9.40;;;20.70;99.90;;;;;;5048302;28;20033;-67
2023/07/09 06:23:18;;;;;;;10.65;9.30;;;20.70;99.90;;;;;;5048321;28;20029;-68
2023/07/09 06:25:48;;;;;;;13.35;9.18;;;20.80;99.90;;;;;;5047782;28;20022;-67
2023/07/09 06:28:18;;;;;;;13.85;9.50;;;20.90;99.90;;;;;;5047991;28;20029;-66
2023/07/09 06:30:45;;;;;;;11.68;9.20;;;20.90;99.90;;;;;;5047810;28;20056;-67
2023/07/09 06:33:13;;;;;;;12.68;10.15;;;21.00;99.90;;;;;;5047604;28;20022;-68
2023/07/09 06:35:39;;;;;;;13.43;10.00;;;21.00;99.90;;;;;;5048089;28;20033;-68
2023/07/09 06:38:05;;;;;;;14.77;11.18;;;21.10;99.90;;;;;;5047702;28;20017;-67
2023/07/09 06:40:31;;;;;;;12.20;9.73;;;21.20;99.90;;;;;;5047889;28;20017;-67
2023/07/09 06:42:57;;;;;;;12.40;10.18;;;21.20;99.90;;;;;;5047899;28;20057;-67
2023/07/09 06:45:24;;;;;;;11.70;9.73;;;21.30;99.90;;;;;;5047325;28;20928;-66
2023/07/09 06:47:49;;;;;;;14.02;9.45;;;21.40;99.90;;;;;;5047561;28;20080;-67
2023/07/09 06:50:15;;;;;;;11.90;9.73;;;21.50;99.90;;;;;;5047537;28;20053;-68
2023/07/09 06:52:41;;;;;;;14.20;9.48;;;21.60;99.90;;;;;;5046125;28;20037;-67
2023/07/09 06:55:07;;;;;;;11.48;9.65;;;21.70;99.90;;;;;;5046559;28;20032;-66
2023/07/09 06:57:33;;;;;;;15.32;9.68;;;21.70;99.90;;;;;;5047800;28;20375;-67
2023/07/09 06:59:58;;;;;;;11.45;9.25;;;21.80;99.90;;;;;;5046970;28;20045;-67
2023/07/09 07:02:24;;;;;;;11.65;9.27;;;21.80;99.90;;;;;;5047691;28;20033;-67
2023/07/09 07:04:49;;;;;;;12.98;9.60;;;21.90;99.90;;;;;;5047335;28;20029;-66
2023/07/09 07:07:15;;;;;;;12.02;8.68;;;21.90;99.90;;;;;;5047089;28;20025;-67
2023/07/09 07:09:41;;;;;;;12.05;8.88;;;22.00;99.90;;;;;;5047313;28;20397;-68
2023/07/09 07:12:07;;;;;;;10.90;8.98;;;22.00;99.90;;;;;;5047324;28;20033;-67
2023/07/09 07:14:32;;;;;;;12.13;9.75;;;22.10;99.90;;;;;;5046967;28;20029;-67
2023/07/09 07:16:58;;;;;;;13.55;9.52;;;22.10;99.90;;;;;;5047154;28;20044;-67
2023/07/09 07:19:23;;;;;;;14.00;8.88;;;22.20;99.90;;;;;;5046150;28;20030;-67
2023/07/09 07:21:49;;;;;;;10.73;8.80;;;22.30;99.90;;;;;;5047020;28;20025;-67
2023/07/09 07:24:14;;;;;;;11.35;8.52;;;22.40;99.90;;;;;;5047186;28;20025;-67
2023/07/09 07:26:40;;;;;;;12.55;9.40;;;22.50;99.90;;;;;;5046734;28;20128;-67
2023/07/09 07:29:06;;;;;;;10.98;9.10;;;22.60;99.90;;;;;;5047000;28;20051;-67
2023/07/09 07:31:31;;;;;;;12.60;9.05;;;22.70;99.90;;;;;;5047132;28;20120;-67
2023/07/09 07:33:57;;;;;;;9.50;7.72;;;22.70;99.90;;;;;;5046663;28;20049;-67
2023/07/09 07:36:22;;;;;;;23.17;9.68;;;22.90;99.90;;;;;;5046689;28;20091;-67
2023/07/09 07:38:48;;;;;;;13.02;8.88;;;23.00;99.90;;;;;;5045312;28;20025;-67
2023/07/09 07:41:13;;;;;;;12.52;9.38;;;23.10;99.90;;;;;;5046426;28;20021;-67
2023/07/09 07:43:39;;;;;;;9.85;8.77;;;23.10;99.90;;;;;;5046724;28;20044;-67
2023/07/09 07:46:05;;;;;;;12.73;9.15;;;23.20;99.90;;;;;;5046777;28;20025;-68
2023/07/09 07:48:31;;;;;;;11.43;8.60;;;23.30;99.90;;;;;;5045001;28;20033;-69
2023/07/09 07:51:01;;;;;;;12.63;9.25;;;23.40;99.90;;;;;;5046503;28;20068;-68
2023/07/09 07:53:29;;;;;;;11.32;8.80;;;23.50;99.90;;;;;;5046555;28;20052;-67
2023/07/09 07:55:56;;;;;;;12.45;8.95;;;23.50;99.90;;;;;;5046195;28;20021;-67
2023/07/09 07:58:21;;;;;;;12.35;9.30;;;23.70;99.90;;;;;;5046315;28;20048;-67
2023/07/09 08:00:47;;;;;;;12.32;8.10;;;23.70;99.90;;;;;;5046336;28;20041;-66
2023/07/09 08:03:12;;;;;;;12.52;8.98;;;23.80;99.90;;;;;;5046009;28;20426;-68
2023/07/09 08:05:38;;;;;;;18.40;8.82;;;23.90;99.90;;;;;;5046527;28;20504;-68
2023/07/09 08:08:04;;;;;;;10.63;8.15;;;24.00;99.90;;;;;;5046269;28;20034;-67
2023/07/09 08:10:29;;;;;;;16.38;7.80;;;24.00;99.90;;;;;;5045761;28;20045;-67
2023/07/09 08:12:57;;;;;;;10.15;8.27;;;24.10;99.90;;;;;;5046237;28;20133;-67
2023/07/09 08:15:24;;;;;;;12.35;8.70;;;24.20;99.90;;;;;;5045837;28;20450;-68
2023/07/09 08:17:49;;;;;;;13.15;9.18;;;24.30;99.90;;;;;;5045604;28;20029;-67
2023/07/09 08:20:15;;;;;;;14.05;8.55;;;24.40;99.90;;;;;;5045924;28;20352;-66
2023/07/09 08:22:40;;;;;;;11.18;8.77;;;24.50;99.90;;;;;;5045873;28;20033;-67
2023/07/09 08:25:07;;;;;;;9.77;8.27;;;24.50;99.90;;;;;;5045885;28;20029;-66
2023/07/09 08:27:32;;;;;;;12.80;8.02;;;24.60;99.90;;;;;;5045925;28;20501;-65
2023/07/09 08:29:58;;;;;;;14.52;9.38;;;24.70;99.90;;;;;;5044516;28;20409;-65
2023/07/09 08:32:23;;;;;;;20.10;8.65;;;24.80;99.90;;;;;;5045724;28;20056;-66
2023/07/09 08:34:49;;;;;;;12.10;9.20;;;24.90;99.90;;;;;;5045864;28;20061;-67
2023/07/09 08:37:14;;;;;;;11.98;8.93;;;24.90;99.90;;;;;;5045383;28;20061;-65
2023/07/09 08:39:40;;;;;;;10.18;9.18;;;25.00;99.90;;;;;;5045632;28;20041;-65
2023/07/09 08:42:23;;;;;;;11.45;8.05;;;24.90;99.90;;;;;;5045518;28;20085;-66
2023/07/09 08:45:02;;;;;;;12.20;8.68;;;25.00;99.90;;;;;;5045330;28;20029;-65
2023/07/09 08:47:42;;;;;;;10.35;9.02;;;25.00;99.90;;;;;;5045379;28;20025;-66
2023/07/09 08:50:12;;;;;;;10.70;9.38;;;25.10;99.90;;;;;;5045319;28;20049;-66
2023/07/09 08:52:43;;;;;;;15.18;8.82;;;25.20;99.90;;;;;;5045279;28;20087;-67
2023/07/09 08:55:16;;;;;;;12.60;9.05;;;25.30;99.90;;;;;;5045577;28;20167;-66
2023/07/09 08:58:00;;;;;;;11.63;9.05;;;25.30;99.90;;;;;;5043300;28;20056;-66
2023/07/09 09:00:51;;;;;;;12.00;8.93;;;25.40;99.90;;;;;;5043733;28;20022;-67
2023/07/09 09:03:41;;;;;;;12.13;8.95;;;25.50;99.90;;;;;;5042281;28;20034;-67
2023/07/09 09:06:12;;;;;;;11.18;8.85;;;25.60;99.90;;;;;;5044961;28;20032;-67
2023/07/09 09:08:47;;;;;;;10.18;8.57;;;25.70;99.90;;;;;;5026774;28;20030;-68
2023/07/09 09:11:39;;;;;;;9.88;8.55;;;25.90;99.90;;;;;;5024398;28;20084;-66
2023/07/09 09:14:17;;;;;;;12.07;8.70;;;26.00;99.90;;;;;;5025161;28;20493;-67
2023/07/09 09:16:44;;;;;;;10.70;8.15;;;26.20;99.90;;;;;;5025139;28;20021;-67
2023/07/09 09:19:37;;;;;;;13.10;8.73;;;26.40;99.90;;;;;;5025304;28;20021;-67
2023/07/09 09:22:11;;;;;;;15.35;8.80;;;26.50;99.90;;;;;;5025124;28;20033;-65
2023/07/09 09:24:46;;;;;;;12.25;8.70;;;26.60;99.90;;;;;;5025227;28;20483;-66
2023/07/09 09:27:12;;;;;;;13.25;8.77;;;26.60;99.90;;;;;;5038309;28;20429;-66
2023/07/09 09:29:37;;;;;;;10.80;8.25;;;26.70;99.90;;;;;;5053383;28;20044;-67
2023/07/09 09:32:20;;;;;;;9.82;8.80;;;26.70;99.90;;;;;;5047340;28;20033;-66
2023/07/09 09:34:45;;;;;;;11.75;8.88;;;26.80;99.90;;;;;;5048956;28;20037;-67
2023/07/09 09:37:12;;;;;;;11.35;7.88;;;26.80;99.90;;;;;;5037714;28;20033;-66
2023/07/09 09:39:38;;;;;;;12.05;8.30;;;26.90;99.90;;;;;;5031647;28;20037;-69
2023/07/09 09:42:11;;;;;;;9.57;8.10;;;27.00;99.90;;;;;;5042776;28;20040;-68
2023/07/09 09:44:42;;;;;;;13.32;8.23;;;27.10;99.90;;;;;;5047154;28;20026;-67
2023/07/09 09:47:10;;;;;;;14.93;8.20;;;27.20;99.90;;;;;;5043083;28;20025;-67
2023/07/09 09:49:43;;;;;;;10.73;7.95;;;27.30;99.90;;;;;;5044728;28;21934;-66
2023/07/09 09:52:17;;;;;;;9.45;7.85;;;27.40;99.90;;;;;;5047614;28;20083;-68
2023/07/09 09:55:04;;;;;;;12.82;8.10;;;27.50;99.90;;;;;;5032099;28;20041;-66
2023/07/09 09:57:30;;;;;;;11.00;8.10;;;27.60;99.90;;;;;;5043443;28;20040;-67
2023/07/09 09:59:56;;;;;;;8.40;7.47;;;27.70;99.90;;;;;;5044326;28;20030;-66
2023/07/09 10:02:24;;;;;;;9.85;7.82;;;27.80;99.90;;;;;;5044109;28;20497;-66
2023/07/09 10:04:50;;;;;;;9.90;7.95;;;27.90;99.90;;;;;;5044293;28;20025;-66
2023/07/09 10:07:31;;;;;;;8.63;7.72;;;28.00;99.90;;;;;;5044034;28;20023;-66
2023/07/09 10:09:58;;;;;;;10.40;8.25;;;28.20;99.90;;;;;;5043847;28;20095;-66
2023/07/09 10:12:42;;;;;;;10.98;8.27;;;28.30;99.90;;;;;;5035568;28;20047;-66
2023/07/09 10:15:29;;;;;;;11.90;8.52;;;28.40;99.90;;;;;;5036291;28;20490;-68
2023/07/09 10:18:11;;;;;;;12.02;8.02;;;28.50;99.90;;;;;;5043993;28;20053;-67
2023/07/09 10:20:45;;;;;;;9.05;7.53;;;28.70;99.90;;;;;;5044396;28;20021;-68
2023/07/09 10:23:28;;;;;;;8.82;7.13;;;28.80;99.90;;;;;;5036620;28;20088;-69
2023/07/09 10:26:20;;;;;;;8.20;7.40;;;29.00;99.90;;;;;;5024418;28;20045;-66
2023/07/09 10:28:57;;;;;;;8.32;7.43;;;29.00;99.90;;;;;;5026326;28;20116;-66
2023/07/09 10:31:42;;;;;;;13.57;7.60;;;29.10;99.90;;;;;;5043658;28;20046;-67
2023/07/09 10:34:37;;;;;;;7.68;6.93;;;29.10;99.90;;;;;;5044387;28;20026;-69
2023/07/09 10:37:18;;;;;;;8.30;7.30;;;29.20;99.90;;;;;;5024323;28;20026;-67
2023/07/09 10:39:58;;;;;;;7.95;7.05;;;29.20;99.90;;;;;;5024019;28;20046;-67
2023/07/09 10:42:41;;;;;;;9.65;7.38;;;29.20;99.90;;;;;;5024323;28;20029;-66
2023/07/09 10:45:20;;;;;;;8.70;7.00;;;29.30;99.90;;;;;;5024096;28;20048;-66
2023/07/09 10:47:53;;;;;;;8.98;7.07;;;29.40;99.90;;;;;;5024359;28;20034;-67
2023/07/09 10:50:24;;;;;;;13.35;7.50;;;29.50;99.90;;;;;;5023669;28;20054;-67
2023/07/09 10:52:53;;;;;;;7.43;6.65;;;29.60;99.90;;;;;;5024745;28;20040;-67
2023/07/09 10:55:43;;;;;;;9.35;7.07;;;29.70;99.90;;;;;;5027772;28;20026;-68
2023/07/09 10:58:22;;;;;;;8.35;7.43;;;29.70;99.90;;;;;;5027516;28;20086;-69
2023/07/09 11:00:48;;;;;;;9.75;7.10;;;29.90;99.90;;;;;;5027635;28;20026;-68
2023/07/09 11:03:29;;;;;;;11.73;7.15;;;30.00;99.90;;;;;;5027813;28;20022;-68
2023/07/09 11:05:54;;;;;;;8.77;7.43;;;30.00;99.90;;;;;;5044808;28;20026;-67
2023/07/09 11:08:25;;;;;;;9.48;6.72;;;30.00;99.90;;;;;;5047262;28;20025;-69
2023/07/09 11:10:56;;;;;;;8.68;6.65;;;30.10;99.90;;;;;;5046791;28;20391;-66
2023/07/09 11:13:29;;;;;;;11.00;6.80;;;30.10;99.90;;;;;;5047122;28;20022;-68
2023/07/09 11:15:56;;;;;;;8.40;7.07;;;30.20;99.90;;;;;;5047337;28;20025;-68
2023/07/09 11:18:29;;;;;;;8.82;7.00;;;30.40;99.90;;;;;;5047128;28;20018;-67
2023/07/09 11:21:04;;;;;;;9.03;6.77;;;30.40;99.90;;;;;;5046817;28;20041;-67
2023/07/09 11:24:00;;;;;;;9.52;7.25;;;30.50;99.90;;;;;;5047395;28;20073;-66
2023/07/09 11:26:33;;;;;;;10.35;7.28;;;30.70;99.90;;;;;;5033791;28;20045;-67
2023/07/09 11:29:01;;;;;;;9.03;7.50;;;30.80;99.90;;;;;;5046876;28;20030;-69
2023/07/09 11:31:38;;;;;;;10.18;7.00;;;30.90;99.90;;;;;;5046969;28;20124;-67
2023/07/09 11:34:17;;;;;;;8.40;7.03;;;31.00;99.90;;;;;;5046910;28;20041;-69
2023/07/09 11:36:55;;;;;;;7.53;6.78;;;31.00;99.90;;;;;;5046983;28;20034;-67
2023/07/09 11:39:20;;;;;;;9.20;6.85;;;31.10;99.90;;;;;;5046542;28;20033;-67
2023/07/09 11:41:47;;;;;;;7.55;6.50;;;31.20;99.90;;;;;;5046366;28;20029;-67
2023/07/09 11:44:24;;;;;;;7.10;6.40;;;31.40;99.90;;;;;;5046632;28;20017;-68
2023/07/09 11:47:13;;;;;;;6.82;6.15;;;31.50;99.90;;;;;;5046698;28;20030;-69
2023/07/09 11:50:02;;;;;;;9.20;6.80;;;31.60;99.90;;;;;;5046167;28;20112;-67
2023/07/09 11:52:37;;;;;;;9.23;6.38;;;31.60;99.90;;;;;;5046664;28;20026;-66
2023/07/09 11:55:27;;;;;;;7.85;6.30;;;31.60;99.90;;;;;;5046488;28;20060;-67
2023/07/09 11:57:57;;;;;;;7.63;6.50;;;31.60;99.90;;;;;;5025493;28;20041;-68
2023/07/09 12:00:25;;;;;;;8.95;6.25;;;31.70;99.90;;;;;;5038281;28;20537;-67
2023/07/09 12:02:51;;;;;;;7.43;6.30;;;31.70;99.90;;;;;;5046025;28;20075;-67
2023/07/09 12:05:25;;;;;;;8.02;6.45;;;31.80;99.90;;;;;;5046309;28;20021;-66
2023/07/09 12:07:51;;;;;;;10.68;6.60;;;32.00;99.90;;;;;;5045845;28;20367;-68
2023/07/09 12:10:23;;;;;;;10.35;6.30;;;32.00;99.90;;;;;;5045898;28;20048;-69
2023/07/09 12:12:53;;;;;;;9.23;6.35;;;32.10;99.90;;;;;;5026451;28;20026;-69
2023/07/09 12:15:22;;;;;;;9.82;6.40;;;32.20;99.90;;;;;;5026202;28;20025;-67
2023/07/09 12:18:14;;;;;;;11.82;6.40;;;32.20;99.90;;;;;;5026225;28;20030;-67
2023/07/09 12:20:43;;;;;;;8.20;6.50;;;32.30;99.90;;;;;;5024297;28;20045;-67
2023/07/09 12:23:28;;;;;;;7.70;5.78;;;32.30;99.90;;;;;;5025747;28;20060;-69
2023/07/09 12:25:54;;;;;;;9.75;6.47;;;32.40;99.90;;;;;;5026390;28;20030;-68
2023/07/09 12:28:21;;;;;;;9.35;6.45;;;32.60;99.90;;;;;;5040414;28;20512;-68
2023/07/09 12:30:52;;;;;;;7.60;6.28;;;32.60;99.90;;;;;;5045434;28;20564;-68
2023/07/09 12:33:25;;;;;;;6.97;6.00;;;32.70;99.90;;;;;;5045691;28;20029;-67
2023/07/09 12:36:01;;;;;;;12.15;6.60;;;32.80;99.90;;;;;;5045683;28;20033;-67
2023/07/09 12:38:42;;;;;;;7.15;6.45;;;32.90;99.90;;;;;;5045389;28;20034;-67
2023/07/09 12:41:20;;;;;;;9.48;6.57;;;33.00;99.90;;;;;;5045957;28;20036;-68
2023/07/09 12:43:46;;;;;;;9.00;6.25;;;33.10;99.90;;;;;;5045329;28;20040;-67
2023/07/09 12:46:12;;;;;;;10.73;6.53;;;33.20;99.90;;;;;;5045453;28;20052;-69
2023/07/09 12:48:38;;;;;;;10.70;6.68;;;33.30;99.90;;;;;;5045378;28;20033;-69
2023/07/09 12:51:08;;;;;;;10.65;6.15;;;33.30;99.90;;;;;;5045339;28;20084;-68